EST,Max TemperatureF,Mean TemperatureF,Min TemperatureF,Max Dew PointF,MeanDew PointF,Min DewpointF,Max Humidity, Mean Humidity, Min Humidity, Max Sea Level PressureIn, Mean Sea Level PressureIn, Min Sea Level PressureIn, Max VisibilityMiles, Mean VisibilityMiles, Min VisibilityMiles, Max Wind SpeedMPH, Mean Wind SpeedMPH, Max Gust SpeedMPH,PrecipitationIn, CloudCover, Events, WindDirDegrees
2013-11-1,69,62,54,57,47,40,93,70,46,29.72,29.59,29.35,10,10,2,31,11,45,0.19,7,Rain,236
2013-11-2,54,49,44,44,41,39,92,77,61,29.99,29.81,29.70,10,10,5,21,9,28,0.04,8,Rain,273
2013-11-3,49,41,32,41,32,24,92,69,46,30.49,30.27,29.99,10,10,10,15,8,20,0.00,4,,349
2013-11-4,46,38,29,25,22,19,75,56,37,30.58,30.51,30.47,10,10,10,14,6,17,0.00,6,,100
2013-11-5,58,49,39,33,29,26,59,49,38,30.54,30.45,30.36,10,10,10,10,5,15,0.00,7,,122
2013-11-6,71,56,41,57,44,28,100,71,41,30.35,30.13,29.94,10,9,2,24,8,32,0.16,6,Rain,192
2013-11-7,58,49,39,56,40,23,93,69,45,30.17,30.03,29.89,10,8,2,26,12,32,0.63,8,Rain,288
2013-11-8,45,37,29,30,26,22,82,63,43,30.33,30.26,30.12,10,10,10,22,8,29,0.00,4,,281
2013-11-9,57,43,28,28,23,19,85,54,23,30.31,30.14,29.99,10,10,10,22,8,32,0.00,5,,204
2013-11-10,54,45,36,36,30,26,70,54,38,30.31,30.14,29.99,10,10,10,28,13,36,0.00,5,,264
2013-11-11,48,40,32,37,29,24,82,61,39,30.30,30.18,30.05,10,9,2,24,9,30,0.04,7,Rain-Snow,252
2013-11-12,34,31,27,30,24,18,92,74,56,30.51,30.36,30.11,10,6,0,20,12,26,0.18,7,Snow,334
2013-11-13,36,29,22,23,20,17,88,68,47,30.57,30.50,30.40,10,9,3,16,9,22,0.01,4,Snow,254
2013-11-14,48,38,27,20,18,16,75,52,28,30.38,30.30,30.20,10,10,10,17,7,23,0.00,3,,195
2013-11-15,55,45,34,33,22,16,52,36,20,30.24,30.20,30.15,10,10,10,18,7,23,0.00,8,,204
2013-11-16,60,50,39,48,42,34,85,68,50,30.26,30.17,30.04,10,10,10,12,4,15,0.00,5,,156
2013-11-17,63,58,53,58,53,45,93,85,77,30.02,29.82,29.55,10,8,2,41,10,55,0.67,8,Rain,183
2013-11-18,60,50,39,38,32,25,71,56,41,30.09,29.86,29.66,10,10,10,29,16,45,0.00,3,,263
2013-11-19,39,34,29,25,23,21,69,60,50,30.45,30.30,30.10,10,10,9,23,10,26,T,7,,337
2013-11-20,48,37,26,22,17,9,81,50,19,30.51,30.44,30.39,10,10,10,18,7,24,0.00,5,,107
2013-11-21,54,44,33,37,28,16,61,51,40,30.46,30.37,30.24,10,10,10,10,4,15,T,7,Rain,118
2013-11-22,53,45,37,52,45,32,93,77,61,30.29,30.18,30.07,10,8,2,26,9,32,0.16,8,Rain,268
2013-11-23,38,29,20,31,22,8,85,69,52,30.38,30.27,30.15,10,8,1,30,14,36,0.02,6,Snow,302
2013-11-24,25,20,15,13,10,6,80,63,46,30.58,30.49,30.33,10,9,2,22,12,28,T,5,Snow,281
2013-11-25,37,26,15,25,9,3,73,50,26,30.54,30.39,30.20,10,10,6,17,7,25,0.01,6,Snow,199
2013-11-26,34,33,31,34,31,28,100,80,59,30.24,30.04,29.72,5,2,0,17,5,22,0.85,8,Rain-Snow,104
2013-11-27,33,28,23,30,24,16,92,80,68,30.16,29.86,29.71,10,6,2,30,15,39,0.08,8,Snow,305
2013-11-28,29,23,17,21,16,11,80,68,55,30.46,30.37,30.19,10,10,8,15,5,21,0.00,6,Snow,244
2013-11-29,34,28,21,21,20,18,92,74,56,30.69,30.61,30.46,10,10,8,7,3,13,0.00,6,,17
2013-11-30,39,31,23,24,20,18,81,65,48,30.63,30.45,30.25,10,10,10,13,5,16,0.00,6,,128